Time;durP1;ratioP1;P1;durP2;ratioP2;P2;SDS_P1;SDS_P2;PMS_P1;PMS_P2;Temp;Humidity;BMP_temperature;BMP_pressure;BME280_temperature;BME280_humidity;BME280_pressure;Samples;Min_cycle;Max_cycle;Signal;HPM_P1;HPM_P2
2022/10/20 00:01:51;;;;;;;11.37;6.57;;;4.40;99.90;;;;;;4808442;29;20255;-85
2022/10/20 00:04:24;;;;;;;11.37;6.10;;;4.40;99.90;;;;;;4809627;29;20301;-85
2022/10/20 00:06:53;;;;;;;12.37;6.63;;;4.30;99.90;;;;;;4807680;29;20268;-85
2022/10/20 00:09:39;;;;;;;10.63;6.40;;;4.40;99.90;;;;;;4821298;29;20246;-85
2022/10/20 00:12:06;;;;;;;11.90;6.17;;;4.30;99.90;;;;;;4812130;24;20339;-85
2022/10/20 00:14:46;;;;;;;11.27;6.07;;;4.40;99.90;;;;;;4779684;30;20262;-85
2022/10/20 00:17:13;;;;;;;12.47;6.40;;;4.30;99.90;;;;;;4796890;29;20205;-83
2022/10/20 00:19:40;;;;;;;15.00;6.23;;;4.30;99.90;;;;;;4770506;30;20208;-85
2022/10/20 00:22:07;;;;;;;12.90;6.57;;;4.30;99.90;;;;;;4809327;24;20245;-85
2022/10/20 00:24:34;;;;;;;12.47;6.33;;;4.30;99.90;;;;;;4773639;30;20306;-83
2022/10/20 00:27:01;;;;;;;11.17;6.20;;;4.50;99.90;;;;;;4786021;29;20549;-88
2022/10/20 00:29:29;;;;;;;13.63;6.17;;;4.50;99.90;;;;;;4780707;29;20205;-87
2022/10/20 00:31:56;;;;;;;11.00;5.93;;;4.50;99.90;;;;;;4787942;29;20206;-83
2022/10/20 00:34:24;;;;;;;12.03;6.40;;;4.50;99.90;;;;;;4780937;29;20206;-82
2022/10/20 00:36:52;;;;;;;13.60;6.37;;;4.50;99.90;;;;;;4781564;29;20937;-84
2022/10/20 00:39:19;;;;;;;12.43;6.60;;;4.50;99.90;;;;;;4773888;29;20210;-83
2022/10/20 00:41:46;;;;;;;11.90;5.73;;;4.40;99.90;;;;;;4798240;29;20655;-82
2022/10/20 00:44:48;;;;;;;11.60;5.97;;;4.40;99.90;;;;;;4790136;29;20216;-80
2022/10/20 00:47:26;;;;;;;12.93;6.33;;;4.30;99.90;;;;;;4799866;29;20208;-87
2022/10/20 00:50:12;;;;;;;10.73;5.87;;;4.30;99.90;;;;;;4801745;29;20546;-83
2022/10/20 00:52:49;;;;;;;11.90;5.70;;;4.10;99.90;;;;;;4788254;29;20565;-84
2022/10/20 00:55:23;;;;;;;11.07;6.00;;;4.20;99.90;;;;;;4772157;29;20207;-87
2022/10/20 00:57:55;;;;;;;10.30;6.17;;;4.20;99.90;;;;;;4785966;29;20200;-88
2022/10/20 01:00:25;;;;;;;11.23;6.10;;;4.20;99.90;;;;;;4789705;29;20545;-88
2022/10/20 01:02:58;;;;;;;12.13;6.30;;;4.10;99.90;;;;;;4794953;29;20274;-82
2022/10/20 01:05:27;;;;;;;11.80;6.27;;;4.20;99.90;;;;;;4772794;30;20235;-81
2022/10/20 01:07:56;;;;;;;11.23;5.67;;;4.20;99.90;;;;;;4792395;29;20210;-83
2022/10/20 01:10:31;;;;;;;9.43;5.53;;;4.20;99.90;;;;;;4789247;29;20196;-84
2022/10/20 01:13:17;;;;;;;10.83;5.80;;;4.30;99.90;;;;;;4785714;29;20209;-85
2022/10/20 01:16:00;;;;;;;14.80;6.50;;;4.30;99.90;;;;;;4782865;29;20208;-84
2022/10/20 01:19:10;;;;;;;11.07;6.00;;;4.20;99.90;;;;;;4793430;29;20206;-84
2022/10/20 01:22:05;;;;;;;10.00;5.73;;;4.20;99.90;;;;;;4805331;29;20275;-84
2022/10/20 01:24:53;;;;;;;10.60;5.90;;;4.20;99.90;;;;;;4800354;29;20217;-84
2022/10/20 01:27:41;;;;;;;12.90;6.40;;;4.10;99.90;;;;;;4776891;29;20208;-81
2022/10/20 01:30:20;;;;;;;10.13;5.97;;;3.90;99.90;;;;;;4777567;30;20196;-83
2022/10/20 01:32:52;;;;;;;12.67;6.70;;;3.80;99.90;;;;;;4778119;30;20547;-82
2022/10/20 01:35:33;;;;;;;10.87;6.33;;;3.90;99.90;;;;;;4771762;30;20663;-84
2022/10/20 01:39:10;;;;;;;13.03;6.07;;;3.90;99.90;;;;;;4771217;24;20241;-83
2022/10/20 01:41:51;;;;;;;13.00;5.90;;;3.90;99.90;;;;;;4750716;30;20290;-81
2022/10/20 01:44:25;;;;;;;12.63;5.90;;;4.00;99.90;;;;;;4721613;30;20227;-83
2022/10/20 01:46:54;;;;;;;11.80;5.73;;;4.10;99.90;;;;;;4750315;30;20235;-81
2022/10/20 01:49:27;;;;;;;10.50;5.57;;;4.00;99.90;;;;;;4708317;30;20626;-82
2022/10/20 01:52:00;;;;;;;11.57;6.30;;;4.00;99.90;;;;;;4721809;30;20199;-81
2022/10/20 01:54:31;;;;;;;9.40;5.70;;;4.00;99.90;;;;;;4721580;30;20665;-81
2022/10/20 01:57:10;;;;;;;10.40;5.60;;;4.00;99.90;;;;;;4721346;30;20204;-80
2022/10/20 01:59:58;;;;;;;9.33;5.77;;;4.00;99.90;;;;;;4751355;30;20241;-81
2022/10/20 02:02:58;;;;;;;13.63;6.07;;;3.90;99.90;;;;;;4747123;30;20278;-81
2022/10/20 02:06:08;;;;;;;10.10;6.07;;;3.90;99.90;;;;;;4740242;30;20239;-81
2022/10/20 02:08:41;;;;;;;9.67;5.43;;;3.90;99.90;;;;;;4744784;30;20218;-82
2022/10/20 02:11:57;;;;;;;11.67;5.83;;;4.00;99.90;;;;;;4749948;30;20199;-81
2022/10/20 02:14:34;;;;;;;12.30;6.13;;;3.90;99.90;;;;;;4753336;29;20300;-86
2022/10/20 02:17:24;;;;;;;12.87;5.93;;;3.90;99.90;;;;;;4783562;30;20219;-82
2022/10/20 02:19:52;;;;;;;10.83;5.43;;;3.90;99.90;;;;;;4783161;29;20225;-84
2022/10/20 02:22:20;;;;;;;11.80;6.10;;;3.90;99.90;;;;;;4770080;30;20209;-83
2022/10/20 02:24:49;;;;;;;11.83;5.83;;;4.00;99.90;;;;;;4753868;30;20282;-84
2022/10/20 02:27:29;;;;;;;14.17;5.90;;;3.80;99.90;;;;;;4769000;30;20245;-83
2022/10/20 02:30:06;;;;;;;11.30;5.70;;;3.80;99.90;;;;;;4769894;29;20205;-83
2022/10/20 02:32:36;;;;;;;10.90;6.27;;;3.80;99.90;;;;;;4768595;30;20228;-82
2022/10/20 02:35:09;;;;;;;12.43;6.57;;;3.70;99.90;;;;;;4783569;30;20216;-83
2022/10/20 02:37:39;;;;;;;11.70;6.03;;;3.60;99.90;;;;;;4769774;30;20268;-82
2022/10/20 02:40:07;;;;;;;11.07;6.27;;;3.60;99.90;;;;;;4772829;30;20270;-83
2022/10/20 02:42:34;;;;;;;10.83;6.20;;;3.60;99.90;;;;;;4768496;30;20630;-84
2022/10/20 02:45:02;;;;;;;13.37;6.37;;;3.60;99.90;;;;;;4768225;30;20707;-83
2022/10/20 02:47:30;;;;;;;10.40;6.23;;;3.60;99.90;;;;;;4755356;30;20205;-83
2022/10/20 02:49:57;;;;;;;12.20;6.97;;;3.60;99.90;;;;;;4756945;30;20674;-83
2022/10/20 02:52:43;;;;;;;9.57;5.97;;;3.70;99.90;;;;;;4771602;30;20565;-83
2022/10/20 02:55:10;;;;;;;10.60;6.20;;;3.60;99.90;;;;;;4772581;30;20691;-83
2022/10/20 02:57:37;;;;;;;10.37;6.27;;;3.60;99.90;;;;;;4757325;30;20206;-82
2022/10/20 03:00:07;;;;;;;14.63;6.80;;;3.70;99.90;;;;;;4772523;30;20237;-83
2022/10/20 03:02:34;;;;;;;14.97;7.07;;;3.60;99.90;;;;;;4770898;30;20564;-83
2022/10/20 03:05:05;;;;;;;11.63;6.33;;;3.60;99.90;;;;;;4770871;30;20252;-83
2022/10/20 03:07:38;;;;;;;12.27;6.47;;;3.60;99.90;;;;;;4772098;30;20225;-83
2022/10/20 03:10:06;;;;;;;13.23;6.67;;;3.50;99.90;;;;;;4773435;30;20261;-83
2022/10/20 03:12:33;;;;;;;11.47;6.73;;;3.50;99.90;;;;;;4756264;30;20202;-82
2022/10/20 03:15:04;;;;;;;13.57;6.70;;;3.50;99.90;;;;;;4756325;30;20202;-83
2022/10/20 03:17:34;;;;;;;13.17;6.93;;;3.50;99.90;;;;;;4771008;30;20217;-83
2022/10/20 03:20:05;;;;;;;12.47;6.73;;;3.50;99.90;;;;;;4773927;30;20201;-82
2022/10/20 03:22:36;;;;;;;12.23;6.70;;;3.40;99.90;;;;;;4770958;30;20280;-83
2022/10/20 03:25:03;;;;;;;13.97;6.53;;;3.40;99.90;;;;;;4772516;30;20580;-83
2022/10/20 03:27:33;;;;;;;13.07;7.53;;;3.30;99.90;;;;;;4770873;30;20201;-83
2022/10/20 03:30:01;;;;;;;11.57;6.63;;;3.20;99.90;;;;;;4755847;30;20205;-81
2022/10/20 03:32:28;;;;;;;11.47;6.80;;;3.20;99.90;;;;;;4770668;30;20580;-78
2022/10/20 03:34:58;;;;;;;14.30;7.40;;;3.20;99.90;;;;;;4770911;30;20561;-83
2022/10/20 03:37:26;;;;;;;13.30;7.20;;;3.30;99.90;;;;;;4772638;30;20697;-83
2022/10/20 03:39:53;;;;;;;15.03;6.87;;;3.00;99.90;;;;;;4770620;30;20205;-84
2022/10/20 03:42:23;;;;;;;15.20;7.57;;;3.00;99.90;;;;;;4770221;30;20206;-84
2022/10/20 03:44:50;;;;;;;10.57;7.00;;;3.10;99.90;;;;;;4770320;30;20219;-85
2022/10/20 03:47:17;;;;;;;14.20;7.60;;;3.10;99.90;;;;;;4756043;30;20209;-84
2022/10/20 03:49:44;;;;;;;14.30;7.43;;;3.20;99.90;;;;;;4770974;30;20222;-83
2022/10/20 03:52:11;;;;;;;15.43;7.73;;;3.20;99.90;;;;;;4773004;30;20209;-82
2022/10/20 03:54:39;;;;;;;14.87;7.70;;;3.10;99.90;;;;;;4771336;30;20199;-83
2022/10/20 03:57:07;;;;;;;15.73;7.23;;;3.20;99.90;;;;;;4770114;30;20254;-83
2022/10/20 03:59:34;;;;;;;16.83;7.40;;;3.30;99.90;;;;;;4770051;30;20578;-82
2022/10/20 04:02:01;;;;;;;13.73;7.87;;;3.20;99.90;;;;;;4770994;30;20206;-83
2022/10/20 04:04:28;;;;;;;13.50;7.70;;;3.10;99.90;;;;;;4755654;30;20206;-81
2022/10/20 04:06:55;;;;;;;16.77;8.07;;;3.00;99.90;;;;;;4771291;30;20568;-82
2022/10/20 04:09:22;;;;;;;13.07;8.03;;;2.80;99.90;;;;;;4755426;30;20229;-82
2022/10/20 04:11:49;;;;;;;15.00;8.27;;;2.80;99.90;;;;;;4770308;30;20201;-81
2022/10/20 04:14:16;;;;;;;17.80;8.70;;;2.80;99.90;;;;;;4770228;30;20209;-83
2022/10/20 04:16:43;;;;;;;15.77;8.50;;;2.90;99.90;;;;;;4771357;30;20634;-83
2022/10/20 04:19:10;;;;;;;14.43;8.33;;;2.90;99.90;;;;;;4770064;30;20214;-85
2022/10/20 04:21:37;;;;;;;15.87;8.97;;;3.00;99.90;;;;;;4771159;30;20217;-82
2022/10/20 04:24:06;;;;;;;15.57;8.00;;;3.00;99.90;;;;;;4771084;30;20276;-82
2022/10/20 04:26:33;;;;;;;16.90;9.13;;;3.00;99.90;;;;;;4771205;30;20263;-83
2022/10/20 04:29:00;;;;;;;17.30;9.07;;;3.00;99.90;;;;;;4755504;30;20535;-83
2022/10/20 04:31:29;;;;;;;17.90;8.87;;;3.00;99.90;;;;;;4771190;30;20208;-84
2022/10/20 04:34:03;;;;;;;13.93;8.77;;;2.90;99.90;;;;;;4740558;30;20205;-82
2022/10/20 04:36:30;;;;;;;17.57;8.53;;;2.90;99.90;;;;;;4754545;30;20240;-83
2022/10/20 04:39:01;;;;;;;20.17;9.87;;;2.90;99.90;;;;;;4754883;30;20582;-81
2022/10/20 04:41:28;;;;;;;17.60;9.33;;;2.90;99.90;;;;;;4769778;30;20248;-82
2022/10/20 04:43:55;;;;;;;17.33;9.07;;;2.80;99.90;;;;;;4740256;30;20205;-82
2022/10/20 04:46:22;;;;;;;16.67;9.33;;;2.80;99.90;;;;;;4754714;30;20234;-83
2022/10/20 04:48:49;;;;;;;15.53;9.37;;;2.60;99.90;;;;;;4754825;30;20206;-83
2022/10/20 04:51:16;;;;;;;20.57;9.93;;;2.70;99.90;;;;;;4771778;30;20202;-83
2022/10/20 04:53:43;;;;;;;16.00;8.97;;;2.70;99.90;;;;;;4754620;30;20300;-82
2022/10/20 04:56:13;;;;;;;18.27;9.97;;;2.80;99.90;;;;;;4751507;30;20230;-82
2022/10/20 04:58:40;;;;;;;20.13;10.30;;;2.80;99.90;;;;;;4752791;30;20206;-82
2022/10/20 05:01:08;;;;;;;20.87;10.13;;;2.70;99.90;;;;;;4761528;30;20235;-82
2022/10/20 05:03:36;;;;;;;17.40;9.43;;;2.80;99.90;;;;;;4770407;30;20674;-82
2022/10/20 05:06:15;;;;;;;15.60;8.77;;;2.80;99.90;;;;;;4754173;30;20221;-83
2022/10/20 05:09:16;;;;;;;20.47;10.20;;;2.60;99.90;;;;;;4754106;30;20211;-84
2022/10/20 05:11:52;;;;;;;20.13;10.10;;;2.80;99.90;;;;;;4770062;30;20208;-85
2022/10/20 05:14:20;;;;;;;20.73;10.33;;;2.80;99.90;;;;;;4769179;30;20218;-83
2022/10/20 05:16:47;;;;;;;19.20;9.63;;;2.70;99.90;;;;;;4769880;30;20602;-83
2022/10/20 05:19:15;;;;;;;20.23;10.90;;;2.70;99.90;;;;;;4754734;30;20296;-83
2022/10/20 05:21:43;;;;;;;19.87;10.87;;;2.70;99.90;;;;;;4754978;30;20683;-83
2022/10/20 05:24:13;;;;;;;20.43;10.37;;;2.80;99.90;;;;;;4739674;30;20209;-82
2022/10/20 05:26:46;;;;;;;18.83;11.03;;;2.70;99.90;;;;;;4768959;30;20294;-82
2022/10/20 05:29:31;;;;;;;21.70;11.37;;;2.80;99.90;;;;;;4754188;30;20657;-82
2022/10/20 05:32:10;;;;;;;19.80;11.57;;;2.70;99.90;;;;;;4770131;30;20695;-84
2022/10/20 05:34:40;;;;;;;20.43;12.03;;;2.70;99.90;;;;;;4806998;24;20216;-82
2022/10/20 05:40:12;;;;;;;21.87;12.30;;;2.80;99.90;;;;;;4768651;30;20196;-80
2022/10/20 05:42:42;;;;;;;25.07;13.63;;;2.80;99.90;;;;;;4754632;30;20227;-80
2022/10/20 05:45:20;;;;;;;22.77;12.57;;;2.80;99.90;;;;;;4759630;30;20303;-80
2022/10/20 05:47:47;;;;;;;24.30;13.70;;;2.90;99.90;;;;;;4757737;30;20213;-81
2022/10/20 05:50:14;;;;;;;27.43;13.83;;;2.90;99.90;;;;;;4754291;30;20198;-81
2022/10/20 05:52:41;;;;;;;32.37;14.43;;;2.80;99.90;;;;;;4754128;30;20807;-83
2022/10/20 05:55:09;;;;;;;32.67;15.40;;;2.90;99.90;;;;;;4753940;30;20232;-82
2022/10/20 05:57:36;;;;;;;36.73;16.67;;;2.90;99.90;;;;;;4754009;30;20582;-81
2022/10/20 06:00:06;;;;;;;46.00;19.10;;;3.00;99.90;;;;;;4769384;30;20212;-80
2022/10/20 06:02:33;;;;;;;39.53;17.23;;;2.90;99.90;;;;;;4768742;30;20658;-80
2022/10/20 06:05:01;;;;;;;39.47;18.40;;;2.90;99.90;;;;;;4759448;30;20616;-79
2022/10/20 06:07:28;;;;;;;42.93;19.30;;;3.00;99.90;;;;;;4753394;30;20222;-83
2022/10/20 06:09:55;;;;;;;50.13;20.63;;;3.00;99.90;;;;;;4751829;30;20573;-81
2022/10/20 06:12:22;;;;;;;40.57;19.17;;;3.00;99.90;;;;;;4752339;30;20197;-82
2022/10/20 06:14:49;;;;;;;44.60;20.20;;;3.00;99.90;;;;;;4752692;30;20564;-84
2022/10/20 06:17:16;;;;;;;44.30;20.10;;;3.00;99.90;;;;;;4753432;30;20290;-86
2022/10/20 06:19:43;;;;;;;48.97;20.97;;;3.10;99.90;;;;;;4768157;30;20209;-85
2022/10/20 06:22:13;;;;;;;44.50;20.93;;;3.10;99.90;;;;;;4769889;30;20228;-81
2022/10/20 06:24:40;;;;;;;47.03;20.47;;;3.30;99.90;;;;;;4742278;30;20202;-84
2022/10/20 06:27:07;;;;;;;44.87;19.70;;;3.30;99.90;;;;;;4769881;30;20296;-86
2022/10/20 06:29:37;;;;;;;49.90;20.97;;;3.50;99.90;;;;;;4772646;29;20202;-82
2022/10/20 06:32:05;;;;;;;44.63;19.80;;;3.60;99.90;;;;;;4754296;30;20672;-80
2022/10/20 06:34:33;;;;;;;41.13;19.17;;;3.70;99.90;;;;;;4738126;30;20568;-84
2022/10/20 06:37:11;;;;;;;37.53;16.87;;;3.80;99.90;;;;;;4761874;30;20233;-84
2022/10/20 06:39:38;;;;;;;34.17;16.43;;;3.80;99.90;;;;;;4757789;30;20215;-85
2022/10/20 06:42:05;;;;;;;41.35;20.15;;;3.80;99.90;;;;;;4759419;30;20120;-85
2022/10/20 06:44:37;;;;;;;40.37;19.63;;;3.90;99.90;;;;;;4774523;30;20227;-84
2022/10/20 06:47:08;;;;;;;47.78;23.25;;;4.20;99.90;;;;;;4754529;30;20522;-82
2022/10/20 06:49:36;;;;;;;42.70;18.60;;;4.10;99.90;;;;;;4771093;30;20203;-82
2022/10/20 06:52:03;;;;;;;35.93;16.00;;;4.20;99.90;;;;;;4755864;30;20237;-81
2022/10/20 06:54:31;;;;;;;44.47;21.48;;;4.30;99.90;;;;;;4765889;30;20931;-81
2022/10/20 06:56:58;;;;;;;43.30;19.63;;;4.40;99.90;;;;;;4766559;30;20233;-80
2022/10/20 06:59:25;;;;;;;39.17;18.50;;;4.60;99.90;;;;;;4768849;30;20198;-80
2022/10/20 07:01:52;;;;;;;40.77;19.40;;;4.60;99.90;;;;;;4770751;30;20211;-86
2022/10/20 07:04:19;;;;;;;47.47;19.70;;;4.50;99.90;;;;;;4756089;30;20227;-89
2022/10/20 07:06:46;;;;;;;45.07;19.80;;;4.60;99.90;;;;;;4759841;30;20211;-84
2022/10/20 07:09:21;;;;;;;50.97;20.77;;;4.60;99.90;;;;;;4752786;30;20604;-85
2022/10/20 07:11:51;;;;;;;48.50;20.47;;;4.50;99.90;;;;;;4768944;30;20210;-85
2022/10/20 07:14:19;;;;;;;49.97;20.47;;;4.60;99.90;;;;;;4754421;30;20572;-88
2022/10/20 07:16:46;;;;;;;50.67;21.03;;;4.60;99.90;;;;;;4740671;30;20559;-85
2022/10/20 07:19:40;;;;;;;47.17;19.93;;;4.50;99.90;;;;;;4703978;30;20210;-85
2022/10/20 07:22:19;;;;;;;44.07;20.00;;;4.50;99.90;;;;;;4683846;30;20208;-88
2022/10/20 07:25:04;;;;;;;44.43;20.37;;;4.60;99.90;;;;;;4708958;30;20201;-89
2022/10/20 07:27:34;;;;;;;49.30;20.07;;;4.70;99.90;;;;;;4712475;30;20216;-87
2022/10/20 07:30:20;;;;;;;46.87;20.23;;;4.70;99.90;;;;;;4688681;30;20214;-85
2022/10/20 07:33:00;;;;;;;45.17;19.50;;;4.70;99.90;;;;;;4716617;30;20299;-87
2022/10/20 07:36:10;;;;;;;47.10;20.47;;;4.80;99.90;;;;;;4701052;30;20335;-87
2022/10/20 07:38:36;;;;;;;52.00;20.97;;;4.90;99.90;;;;;;4739665;30;20213;-86
2022/10/20 07:41:04;;;;;;;52.30;21.80;;;5.10;99.90;;;;;;4749746;30;20216;-87
2022/10/20 07:43:31;;;;;;;48.23;21.23;;;5.10;99.90;;;;;;4755989;30;20555;-91
2022/10/20 07:45:58;;;;;;;51.50;21.70;;;5.10;99.90;;;;;;4775049;30;20208;-85
2022/10/20 07:48:25;;;;;;;54.57;21.40;;;5.20;99.90;;;;;;4782718;24;20251;-91
2022/10/20 07:51:03;;;;;;;43.47;20.37;;;5.40;99.90;;;;;;4745363;30;20241;-87
2022/10/20 07:53:30;;;;;;;43.77;19.40;;;6.10;99.90;;;;;;4770638;30;20200;-84
2022/10/20 07:56:00;;;;;;;41.40;18.27;;;6.90;99.90;;;;;;4756258;30;20284;-84
2022/10/20 07:58:33;;;;;;;38.10;18.03;;;7.50;99.90;;;;;;4756127;30;20209;-87
2022/10/20 08:01:02;;;;;;;38.13;16.60;;;8.00;99.90;;;;;;4754286;30;20238;-84
2022/10/20 08:03:29;;;;;;;32.13;17.47;;;8.30;99.90;;;;;;4755815;30;20205;-88
2022/10/20 08:06:03;;;;;;;37.83;16.87;;;8.50;99.90;;;;;;4753751;30;20291;-91
2022/10/20 08:08:32;;;;;;;33.07;15.83;;;8.60;99.90;;;;;;4774030;30;20227;-91
2022/10/20 08:10:59;;;;;;;29.40;15.50;;;8.90;99.90;;;;;;4761517;30;20205;-86
2022/10/20 08:13:51;;;;;;;31.67;14.97;;;9.10;99.90;;;;;;4767624;30;20217;-89
2022/10/20 08:16:18;;;;;;;30.63;14.63;;;9.30;99.90;;;;;;4764835;30;20578;-84
2022/10/20 08:18:54;;;;;;;31.87;14.40;;;9.60;99.90;;;;;;4765155;30;20205;-84
2022/10/20 08:21:44;;;;;;;32.17;15.57;;;9.80;99.90;;;;;;4752069;30;21002;-83
2022/10/20 08:24:11;;;;;;;28.77;13.53;;;10.00;99.90;;;;;;4771305;30;20244;-84
2022/10/20 08:26:41;;;;;;;31.83;15.40;;;10.20;99.90;;;;;;4756638;30;20466;-87
2022/10/20 08:29:08;;;;;;;25.57;14.40;;;10.30;99.90;;;;;;4737833;30;20201;-88
2022/10/20 08:31:43;;;;;;;29.43;14.00;;;10.10;99.90;;;;;;4737623;30;20229;-85
2022/10/20 08:34:10;;;;;;;31.77;13.93;;;10.10;99.90;;;;;;4734865;30;20222;-84
2022/10/20 08:36:37;;;;;;;30.43;15.27;;;10.30;99.90;;;;;;4737274;30;20264;-87
2022/10/20 08:39:04;;;;;;;29.60;14.47;;;10.60;99.90;;;;;;4719689;30;20219;-86
2022/10/20 08:41:36;;;;;;;32.03;15.67;;;10.70;99.90;;;;;;4720382;30;20206;-87
2022/10/20 08:44:48;;;;;;;32.43;15.73;;;10.90;99.90;;;;;;4750965;30;20285;-84
2022/10/20 08:47:41;;;;;;;30.30;14.53;;;11.10;99.90;;;;;;4726873;30;20229;-82
2022/10/20 08:50:12;;;;;;;31.67;15.93;;;11.20;99.90;;;;;;4739087;30;20210;-81
2022/10/20 08:52:41;;;;;;;25.63;13.10;;;11.30;99.90;;;;;;4728586;30;20236;-84
2022/10/20 08:55:31;;;;;;;29.80;13.70;;;11.60;99.90;;;;;;4740574;30;20676;-87
2022/10/20 08:58:05;;;;;;;28.90;13.70;;;12.00;99.90;;;;;;4736736;30;20237;-81
2022/10/20 09:00:36;;;;;;;25.30;13.80;;;11.80;99.90;;;;;;4733412;30;20213;-82
2022/10/20 09:03:29;;;;;;;26.97;13.77;;;11.60;99.90;;;;;;4753828;30;20533;-82
2022/10/20 09:06:12;;;;;;;24.37;12.93;;;11.40;99.90;;;;;;4739986;30;20197;-86
2022/10/20 09:08:39;;;;;;;21.40;11.97;;;11.30;99.90;;;;;;4724572;30;20283;-79
2022/10/20 09:11:10;;;;;;;25.77;13.20;;;11.30;99.90;;;;;;4741530;30;20205;-82
2022/10/20 09:13:40;;;;;;;22.80;12.77;;;11.10;99.90;;;;;;4732539;30;20249;-84
2022/10/20 09:16:28;;;;;;;21.37;12.37;;;10.60;99.90;;;;;;4756190;30;20541;-77
2022/10/20 09:19:20;;;;;;;22.07;12.63;;;10.60;99.90;;;;;;4755518;30;20209;-89
2022/10/20 09:21:57;;;;;;;23.77;12.87;;;10.60;99.90;;;;;;4738058;30;20213;-85
2022/10/20 09:24:28;;;;;;;24.10;12.30;;;10.70;99.90;;;;;;4741131;30;20258;-80
2022/10/20 09:27:14;;;;;;;22.50;12.23;;;10.50;99.90;;;;;;4763806;30;20221;-82
2022/10/20 09:29:42;;;;;;;22.83;12.10;;;10.20;99.90;;;;;;4741903;30;20194;-88
2022/10/20 09:32:31;;;;;;;24.53;12.93;;;9.90;99.90;;;;;;4738081;30;20201;-86
2022/10/20 09:35:28;;;;;;;21.03;12.53;;;10.00;99.90;;;;;;4744932;30;20241;-83
2022/10/20 09:38:28;;;;;;;21.37;11.40;;;10.20;99.90;;;;;;4751718;30;20229;-86
2022/10/20 09:41:16;;;;;;;26.23;12.30;;;10.50;99.90;;;;;;4737029;30;20665;-87
2022/10/20 09:44:07;;;;;;;19.50;10.73;;;10.30;99.90;;;;;;4737274;30;20626;-85
2022/10/20 09:46:43;;;;;;;22.03;11.93;;;10.30;99.90;;;;;;4752161;30;20205;-85
2022/10/20 09:49:32;;;;;;;22.27;11.37;;;10.70;99.90;;;;;;4752381;30;20678;-82
2022/10/20 09:52:00;;;;;;;22.90;10.53;;;10.80;99.90;;;;;;4736431;30;20237;-79
2022/10/20 09:54:28;;;;;;;19.07;9.67;;;11.10;99.90;;;;;;4736911;30;20201;-82
2022/10/20 09:57:13;;;;;;;18.80;10.20;;;11.10;99.90;;;;;;4760803;30;20289;-83
2022/10/20 09:59:46;;;;;;;21.70;9.90;;;11.30;99.90;;;;;;4768482;30;20599;-85
2022/10/20 10:02:22;;;;;;;17.33;10.10;;;11.30;99.90;;;;;;4753194;30;20201;-81
2022/10/20 10:04:51;;;;;;;17.00;9.07;;;11.20;99.90;;;;;;4739702;30;20241;-82
2022/10/20 10:10:18;;;;;;;13.37;8.03;;;11.30;99.90;;;;;;4719248;30;20768;-89
2022/10/20 10:16:25;;;;;;;12.77;7.27;;;12.30;99.90;;;;;;4712133;30;20207;-91
2022/10/20 10:19:00;;;;;;;13.13;7.33;;;13.30;99.90;;;;;;4701349;30;20282;-88
2022/10/20 10:21:42;;;;;;;13.70;6.63;;;14.10;99.90;;;;;;4701219;30;20549;-87
2022/10/20 10:39:29;;;;;;;8.93;4.07;;;17.80;99.90;;;;;;5369021;24;20236;-82
2022/10/20 10:42:44;;;;;;;7.83;4.00;;;18.30;99.90;;;;;;4790475;30;20279;-82
2022/10/20 10:45:51;;;;;;;5.67;2.30;;;18.40;99.90;;;;;;4774217;30;20200;-84
2022/10/20 10:49:19;;;;;;;4.07;2.80;;;17.50;99.90;;;;;;4786525;24;20257;-81
2022/10/20 10:52:24;;;;;;;3.30;2.20;;;16.80;99.90;;;;;;4790335;30;20654;-81
2022/10/20 10:55:12;;;;;;;5.93;3.10;;;16.20;99.90;;;;;;4746978;30;20451;-83
2022/10/20 10:58:21;;;;;;;5.23;2.83;;;16.10;99.90;;;;;;4789052;29;20235;-81
2022/10/20 11:00:57;;;;;;;7.33;3.00;;;15.90;99.90;;;;;;4777369;29;20245;-84
2022/10/20 11:03:47;;;;;;;7.53;3.30;;;15.50;99.90;;;;;;4787959;29;20531;-82
2022/10/20 11:06:17;;;;;;;4.93;2.93;;;14.70;99.90;;;;;;4770060;30;20195;-81
2022/10/20 11:08:47;;;;;;;6.33;3.20;;;14.70;99.90;;;;;;4769289;30;20215;-79
2022/10/20 11:11:17;;;;;;;9.40;2.90;;;14.60;99.90;;;;;;4766823;30;20210;-80
2022/10/20 11:14:23;;;;;;;4.87;2.50;;;14.50;99.90;;;;;;4758400;30;20668;-80
2022/10/20 11:16:59;;;;;;;5.00;2.53;;;14.90;99.90;;;;;;4756036;30;20216;-75
2022/10/20 11:19:50;;;;;;;4.20;2.60;;;15.60;99.90;;;;;;4761370;30;20296;-82
2022/10/20 11:22:35;;;;;;;5.20;2.73;;;16.50;99.90;;;;;;4776306;30;20205;-74
2022/10/20 11:25:44;;;;;;;6.47;3.30;;;17.50;99.90;;;;;;4771771;30;20540;-89
2022/10/20 11:28:30;;;;;;;5.77;3.00;;;18.50;99.90;;;;;;4686953;30;20683;-82
2022/10/20 11:30:58;;;;;;;6.95;3.95;;;18.80;99.90;;;;;;4699253;30;20460;-90
2022/10/20 11:33:38;;;;;;;5.93;3.77;;;18.80;99.90;;;;;;4699725;30;20718;-87
2022/10/20 11:36:17;;;;;;;4.13;2.87;;;19.10;99.90;;;;;;4699683;30;20621;-89
2022/10/20 11:38:49;;;;;;;8.55;5.00;;;18.90;99.90;;;;;;4697085;30;20170;-78
2022/10/20 11:41:37;;;;;;;7.97;4.80;;;18.30;99.90;;;;;;4697922;30;20324;-76
2022/10/20 11:44:07;;;;;;;5.43;3.20;;;17.80;99.90;;;;;;4683316;30;20215;-78
2022/10/20 11:46:37;;;;;;;7.97;3.50;;;16.80;99.90;;;;;;4698999;30;20663;-79
2022/10/20 11:49:04;;;;;;;4.23;2.57;;;16.20;99.90;;;;;;4686516;30;20663;-75
2022/10/20 11:51:31;;;;;;;5.70;3.10;;;16.30;99.90;;;;;;4702441;30;20553;-72
2022/10/20 11:54:04;;;;;;;4.33;2.07;;;17.00;99.90;;;;;;4701355;30;20207;-78
2022/10/20 11:57:13;;;;;;;4.83;2.30;;;17.50;99.80;;;;;;4701886;30;20639;-81
2022/10/20 12:00:12;;;;;;;3.40;2.00;;;18.60;97.60;;;;;;4716677;30;20206;-77
2022/10/20 12:03:02;;;;;;;4.50;2.10;;;19.40;95.70;;;;;;4704806;30;20550;-80
2022/10/20 12:05:47;;;;;;;4.87;2.27;;;20.10;94.70;;;;;;4763820;30;20476;-81
2022/10/20 12:08:29;;;;;;;3.90;1.93;;;20.60;92.30;;;;;;4755790;30;20609;-81
2022/10/20 12:11:22;;;;;;;5.93;2.47;;;20.80;90.20;;;;;;4753286;30;20557;-82
2022/10/20 12:14:17;;;;;;;4.43;2.53;;;21.10;89.10;;;;;;4763836;30;20461;-79
2022/10/20 12:16:51;;;;;;;5.60;2.50;;;21.50;87.30;;;;;;4784882;30;20209;-76
2022/10/20 12:19:24;;;;;;;4.07;2.70;;;22.00;83.50;;;;;;4770068;30;20212;-82
2022/10/20 12:21:59;;;;;;;4.37;2.50;;;21.60;81.90;;;;;;4770233;30;20209;-80
2022/10/20 12:24:38;;;;;;;3.83;2.23;;;20.40;83.30;;;;;;4784652;30;20213;-76
2022/10/20 12:27:08;;;;;;;4.70;2.47;;;19.10;87.80;;;;;;4769613;30;20231;-80
2022/10/20 12:29:35;;;;;;;4.38;2.65;;;18.10;91.00;;;;;;4770041;30;20455;-79
2022/10/20 12:32:23;;;;;;;5.20;2.30;;;17.40;92.00;;;;;;4767860;30;20213;-77
2022/10/20 12:34:53;;;;;;;6.43;3.47;;;16.80;94.50;;;;;;4782318;30;20492;-77
2022/10/20 12:37:32;;;;;;;5.87;3.27;;;16.40;95.40;;;;;;4769959;30;20220;-80
2022/10/20 12:40:08;;;;;;;6.77;3.10;;;15.90;96.70;;;;;;4769674;30;20201;-81
2022/10/20 12:42:46;;;;;;;7.13;3.07;;;15.60;97.50;;;;;;4766114;30;20268;-77
2022/10/20 12:45:19;;;;;;;7.33;2.90;;;15.20;98.50;;;;;;4764889;30;20235;-76
2022/10/20 12:47:57;;;;;;;6.70;2.97;;;15.10;99.90;;;;;;4754847;30;20207;-79
2022/10/20 12:50:44;;;;;;;6.17;3.10;;;14.90;99.90;;;;;;4751013;30;20282;-76
2022/10/20 12:53:17;;;;;;;7.40;3.20;;;14.70;99.90;;;;;;4753211;30;20562;-76
2022/10/20 12:55:52;;;;;;;8.20;3.50;;;14.40;99.90;;;;;;4751176;30;20204;-76
2022/10/20 12:58:19;;;;;;;5.57;2.90;;;14.20;99.90;;;;;;4750946;30;20233;-76
2022/10/20 13:00:46;;;;;;;6.10;2.57;;;14.00;99.90;;;;;;4752368;30;20197;-78
2022/10/20 13:03:42;;;;;;;5.27;2.70;;;13.60;99.90;;;;;;4750992;30;20215;-79
2022/10/20 13:06:22;;;;;;;5.80;2.83;;;13.40;99.90;;;;;;4750437;30;20592;-76
2022/10/20 13:09:09;;;;;;;5.23;2.50;;;13.20;99.90;;;;;;4751045;30;20211;-77
2022/10/20 13:11:43;;;;;;;4.70;2.50;;;13.10;99.90;;;;;;4755250;30;20216;-77
2022/10/20 13:14:13;;;;;;;4.50;2.30;;;13.00;99.90;;;;;;4768914;30;20220;-77
2022/10/20 13:16:55;;;;;;;6.70;2.40;;;13.00;99.90;;;;;;4768705;30;20205;-77
2022/10/20 13:19:32;;;;;;;4.77;2.30;;;12.90;99.90;;;;;;4765216;30;20545;-75
2022/10/20 13:22:34;;;;;;;5.07;2.30;;;12.70;99.90;;;;;;4768594;30;20208;-76
2022/10/20 13:25:04;;;;;;;6.07;2.90;;;12.60;99.90;;;;;;4762707;30;20213;-74
2022/10/20 13:27:31;;;;;;;5.33;2.23;;;12.50;99.90;;;;;;4751083;30;20228;-74
2022/10/20 13:29:58;;;;;;;6.43;2.30;;;12.50;99.90;;;;;;4750717;30;20675;-72
2022/10/20 13:32:51;;;;;;;4.50;1.90;;;12.40;99.90;;;;;;4750877;30;20301;-72
2022/10/20 13:35:55;;;;;;;4.50;1.90;;;12.30;99.90;;;;;;4765053;30;20201;-72
2022/10/20 13:38:50;;;;;;;5.00;2.33;;;12.20;99.90;;;;;;4743553;30;20504;-75
2022/10/20 13:41:34;;;;;;;5.25;2.60;;;12.10;99.90;;;;;;4749255;30;20464;-75
2022/10/20 13:44:19;;;;;;;3.57;1.80;;;12.20;99.90;;;;;;4734814;30;20308;-75
2022/10/20 13:47:15;;;;;;;4.57;2.47;;;12.20;99.90;;;;;;4748337;30;20516;-73
2022/10/20 13:50:05;;;;;;;7.25;3.50;;;12.20;99.90;;;;;;4749439;30;20858;-77
2022/10/20 13:52:36;;;;;;;4.40;2.10;;;12.20;99.90;;;;;;4734402;30;20470;-74